createdAt,value
2022-12-17T09:04:39.886Z,24.18
2022-12-17T09:07:28.682Z,21.80
2022-12-17T09:10:18.143Z,25.65
2022-12-17T09:13:05.870Z,35.23
2022-12-17T09:15:54.867Z,38.13
2022-12-17T09:18:42.479Z,42.30
2022-12-17T09:21:32.028Z,37.60
2022-12-17T09:24:20.117Z,34.35
2022-12-17T09:27:10.329Z,34.55
2022-12-17T09:29:57.724Z,36.17
2022-12-17T09:32:45.859Z,31.07
2022-12-17T09:35:35.579Z,27.30
2022-12-17T09:38:24.678Z,29.40
2022-12-17T09:41:14.917Z,28.90
2022-12-17T09:44:22.266Z,26.45
2022-12-17T09:47:15.839Z,27.87
2022-12-17T09:50:05.045Z,27.25
2022-12-17T09:52:57.884Z,25.90
2022-12-17T09:55:53.373Z,30.08
2022-12-17T09:58:48.129Z,29.30
2022-12-17T10:01:41.074Z,32.25
2022-12-17T10:04:44.020Z,31.62
2022-12-17T10:07:43.716Z,26.07
2022-12-17T10:10:44.915Z,31.62
2022-12-17T10:13:37.701Z,29.48
2022-12-17T10:16:49.120Z,36.13
2022-12-17T10:19:56.158Z,29.45
2022-12-17T10:22:47.628Z,34.95
2022-12-17T10:25:40.991Z,34.60
2022-12-17T10:28:37.130Z,34.05
2022-12-17T10:31:49.273Z,34.08
2022-12-17T10:34:47.752Z,32.63
2022-12-17T10:37:40.638Z,34.30
2022-12-17T10:40:41.832Z,25.57
2022-12-17T10:43:47.483Z,26.23
2022-12-17T10:46:52.784Z,28.40
2022-12-17T11:00:27.039Z,24.95
2022-12-17T11:03:28.685Z,23.12
2022-12-17T11:06:20.494Z,26.73
2022-12-17T11:09:09.264Z,23.90
2022-12-17T11:11:56.440Z,26.68
2022-12-17T11:14:46.780Z,25.10
2022-12-17T11:17:35.747Z,29.85
2022-12-17T11:20:27.169Z,56.55
2022-12-17T11:23:18.181Z,34.13
2022-12-17T11:26:28.254Z,31.73
2022-12-17T11:29:18.008Z,36.42
2022-12-17T11:32:41.583Z,33.95
2022-12-17T11:35:37.407Z,25.97
2022-12-17T11:38:53.216Z,31.00
2022-12-17T11:42:10.884Z,31.87
2022-12-17T11:45:06.868Z,28.07
2022-12-17T11:48:02.900Z,26.93
2022-12-17T11:51:02.007Z,26.42
2022-12-17T11:54:11.540Z,26.40
2022-12-17T11:57:13.201Z,30.80
2022-12-17T12:00:26.946Z,28.67
2022-12-17T12:03:42.987Z,25.92
2022-12-17T12:06:43.554Z,25.15
2022-12-17T12:09:46.989Z,25.82
2022-12-17T12:12:56.149Z,22.13
2022-12-17T12:16:24.413Z,24.50
2022-12-17T12:19:44.611Z,27.35
2022-12-17T12:22:48.224Z,30.90
2022-12-17T12:26:02.256Z,32.63
2022-12-17T12:28:57.671Z,26.27
2022-12-17T12:32:00.298Z,30.72
2022-12-17T12:34:50.545Z,26.82
2022-12-17T12:37:38.069Z,20.72
2022-12-17T12:43:46.525Z,34.15
2022-12-17T12:46:51.379Z,21.17
2022-12-17T12:49:49.971Z,32.60
2022-12-17T12:52:43.007Z,29.27
2022-12-17T12:55:30.320Z,23.57
2022-12-17T12:58:24.816Z,26.37
2022-12-17T13:01:13.436Z,40.00
2022-12-17T13:04:09.911Z,24.10
2022-12-17T13:06:56.822Z,25.68
2022-12-17T13:09:35.238Z,26.37
2022-12-17T13:12:13.444Z,24.27
2022-12-17T13:15:09.159Z,20.72
2022-12-17T13:17:43.451Z,23.30
2022-12-17T13:20:29.070Z,24.70
2022-12-17T13:23:17.289Z,22.58
2022-12-17T13:25:46.436Z,20.85
2022-12-17T13:28:30.680Z,22.82
2022-12-17T13:31:05.142Z,20.45
2022-12-17T13:33:58.356Z,21.60
2022-12-17T13:36:53.952Z,24.30
2022-12-17T13:39:58.520Z,24.87
2022-12-17T13:42:32.418Z,24.60
2022-12-17T13:45:00.984Z,28.38
2022-12-17T13:47:34.935Z,25.52
2022-12-17T13:52:38.019Z,21.30
2022-12-17T13:55:09.537Z,21.48
2022-12-17T13:57:42.153Z,34.90
2022-12-17T14:00:29.629Z,30.15
2022-12-17T14:03:00.321Z,25.75
2022-12-17T14:05:37.529Z,25.48
2022-12-17T14:08:06.303Z,30.35
2022-12-17T14:10:35.696Z,25.40
2022-12-17T14:13:10.426Z,26.05
2022-12-17T14:15:41.734Z,22.67
2022-12-17T14:18:14.383Z,25.32
2022-12-17T14:20:43.752Z,25.72
2022-12-17T14:23:22.005Z,31.73
2022-12-17T14:25:50.567Z,31.20
2022-12-17T14:28:36.751Z,33.88
2022-12-17T14:31:26.697Z,34.23
2022-12-17T14:33:48.160Z,29.85
2022-12-17T14:36:23.420Z,31.27
2022-12-17T14:39:00.335Z,30.50
2022-12-17T14:41:53.335Z,34.88
2022-12-17T14:44:35.919Z,23.95
2022-12-17T14:47:22.346Z,27.80
2022-12-17T14:50:07.443Z,22.37
2022-12-17T14:52:44.610Z,21.30
2022-12-17T14:55:42.422Z,14.23
2022-12-17T14:58:18.904Z,17.52
2022-12-17T15:00:53.623Z,18.48
2022-12-17T15:03:33.677Z,15.72
2022-12-17T15:06:10.611Z,18.50
2022-12-17T15:08:43.623Z,19.67
2022-12-17T15:11:15.691Z,19.15
2022-12-17T15:13:45.129Z,20.15
2022-12-17T15:16:26.220Z,25.52
2022-12-17T15:19:01.346Z,26.35
2022-12-17T15:21:32.321Z,25.00
2022-12-17T15:24:04.709Z,27.20
2022-12-17T15:26:36.130Z,23.40
2022-12-17T15:29:06.506Z,21.68
2022-12-17T15:31:36.221Z,23.20
2022-12-17T15:34:07.600Z,25.70
2022-12-17T15:36:38.453Z,30.85
2022-12-17T15:39:09.719Z,34.73
2022-12-17T15:41:57.809Z,33.13
2022-12-17T15:44:28.351Z,32.53
2022-12-17T15:46:58.861Z,25.30
2022-12-17T15:49:29.395Z,20.85
2022-12-17T15:52:00.467Z,16.85
2022-12-17T15:54:31.281Z,18.35
2022-12-17T15:57:00.836Z,20.00
2022-12-17T15:59:33.299Z,18.75
2022-12-17T16:02:03.515Z,15.48
2022-12-17T16:04:34.392Z,16.40
2022-12-17T16:07:04.814Z,21.33
2022-12-17T16:09:34.677Z,18.15
2022-12-17T16:12:04.780Z,22.42
2022-12-17T16:14:33.211Z,27.85
2022-12-17T16:17:02.174Z,28.00
2022-12-17T16:19:32.298Z,31.65
2022-12-17T16:22:01.887Z,25.72
2022-12-17T16:24:31.204Z,18.55
2022-12-17T16:27:04.272Z,18.85
2022-12-17T16:29:31.723Z,18.62
2022-12-17T16:32:00.796Z,13.93
2022-12-17T16:34:29.513Z,15.80
2022-12-17T16:37:01.633Z,16.80
2022-12-17T16:39:31.259Z,17.65
2022-12-17T16:41:59.756Z,21.93
2022-12-17T16:44:28.702Z,25.30
2022-12-17T16:46:58.130Z,21.65
2022-12-17T16:49:28.576Z,19.75
2022-12-17T16:51:58.188Z,20.85
2022-12-17T16:54:30.200Z,23.12
2022-12-17T16:57:01.911Z,20.50
2022-12-17T16:59:50.553Z,22.93
2022-12-17T17:02:19.765Z,16.35
2022-12-17T17:04:48.796Z,14.03
2022-12-17T17:07:17.529Z,11.05
2022-12-17T17:09:46.650Z,17.48
2022-12-17T17:12:17.965Z,13.88
2022-12-17T17:14:47.470Z,11.65
2022-12-17T17:17:16.406Z,7.53
2022-12-17T17:19:45.353Z,6.62
2022-12-17T17:22:14.504Z,7.15
2022-12-17T17:24:43.992Z,7.20
2022-12-17T17:27:12.871Z,7.70
2022-12-17T17:29:42.144Z,6.47
2022-12-17T17:32:12.870Z,4.78
2022-12-17T17:34:42.427Z,7.42
2022-12-17T17:37:10.888Z,5.12
2022-12-17T17:39:39.508Z,5.28
2022-12-17T17:42:08.009Z,5.15
2022-12-17T17:44:37.101Z,7.30
2022-12-17T17:47:05.794Z,6.03
2022-12-17T17:49:34.968Z,8.00
2022-12-17T17:52:11.582Z,6.33
2022-12-17T17:54:33.981Z,7.80
2022-12-17T17:57:03.071Z,5.20
2022-12-17T17:59:34.108Z,6.12
2022-12-17T18:02:03.186Z,9.18
2022-12-17T18:04:33.079Z,6.45
2022-12-17T18:07:24.753Z,8.08
2022-12-17T18:09:34.529Z,6.87
2022-12-17T18:12:04.882Z,5.65
2022-12-17T18:14:41.721Z,3.10
2022-12-17T18:17:07.110Z,4.53
2022-12-17T18:19:35.882Z,3.40
2022-12-17T18:22:05.032Z,3.83
2022-12-17T18:24:35.288Z,4.08
2022-12-17T18:27:03.833Z,5.53
2022-12-17T18:29:34.410Z,9.33
2022-12-17T18:32:03.031Z,10.50
2022-12-17T18:34:34.800Z,10.63
2022-12-17T18:37:05.095Z,11.43
2022-12-17T18:39:33.890Z,9.40
2022-12-17T18:42:21.006Z,9.68
2022-12-17T18:44:50.055Z,14.65
2022-12-17T18:47:19.103Z,11.40
2022-12-17T18:49:48.095Z,7.47
2022-12-17T18:52:17.690Z,4.45
2022-12-17T18:54:47.849Z,7.70
2022-12-17T18:57:16.700Z,5.33
2022-12-17T18:59:45.701Z,3.67
2022-12-17T19:02:14.430Z,4.22
2022-12-17T19:04:44.111Z,5.50
2022-12-17T19:07:12.621Z,4.45
2022-12-17T19:09:42.144Z,5.67
2022-12-17T19:12:10.666Z,4.22
2022-12-17T19:14:39.421Z,3.55
2022-12-17T19:17:07.822Z,5.28
2022-12-17T19:19:36.474Z,8.08
2022-12-17T19:22:05.929Z,6.40
2022-12-17T19:24:35.084Z,7.37
2022-12-17T19:27:04.628Z,12.33
2022-12-17T19:29:35.554Z,5.47
2022-12-17T19:32:05.099Z,3.30
2022-12-17T19:34:35.059Z,2.85
2022-12-17T19:37:04.388Z,5.20
2022-12-17T19:39:33.370Z,4.22
2022-12-17T19:42:02.090Z,4.83
2022-12-17T19:44:30.757Z,5.33
2022-12-17T19:46:59.759Z,5.65
2022-12-17T19:49:29.399Z,3.80
2022-12-17T19:51:58.404Z,3.92
2022-12-17T19:54:27.887Z,4.50
2022-12-17T19:56:56.976Z,3.72
2022-12-17T19:59:26.053Z,4.40
2022-12-17T20:01:54.645Z,2.70
2022-12-17T20:04:23.584Z,3.47
2022-12-17T20:06:52.185Z,2.85
2022-12-17T20:09:21.321Z,2.62
2022-12-17T20:11:51.045Z,3.87
2022-12-17T20:14:25.647Z,2.92
2022-12-17T20:16:58.022Z,3.25
2022-12-17T20:19:30.985Z,3.15
2022-12-17T20:22:00.695Z,2.83
2022-12-17T20:24:31.843Z,5.95
2022-12-17T20:27:00.507Z,3.33
2022-12-17T20:29:29.125Z,3.65
2022-12-17T20:31:57.710Z,3.42
2022-12-17T20:34:26.423Z,3.65
2022-12-17T20:36:55.398Z,2.37
2022-12-17T20:39:27.444Z,3.37
2022-12-17T20:41:56.866Z,2.67
2022-12-17T20:44:25.675Z,2.62
2022-12-17T20:46:55.438Z,1.85
2022-12-17T20:49:24.213Z,1.90
2022-12-17T20:51:52.817Z,3.15
2022-12-17T20:54:23.070Z,3.42
2022-12-17T20:56:51.884Z,2.10
2022-12-17T20:59:20.912Z,2.12
2022-12-17T21:01:54.418Z,2.58
2022-12-17T21:04:20.338Z,3.87
2022-12-17T21:06:48.756Z,3.27
2022-12-17T21:09:22.274Z,4.08
2022-12-17T21:11:50.812Z,3.83
2022-12-17T21:14:19.518Z,2.60
2022-12-17T21:16:48.144Z,2.12
2022-12-17T21:19:19.004Z,3.45
2022-12-17T21:21:47.696Z,3.27
2022-12-17T21:24:16.460Z,3.52
2022-12-17T21:26:46.888Z,3.15
2022-12-17T21:29:15.679Z,3.65
2022-12-17T21:31:50.216Z,3.70
2022-12-17T21:34:22.168Z,4.92
2022-12-17T21:36:52.319Z,4.30
2022-12-17T21:39:21.180Z,4.72
2022-12-17T21:42:08.195Z,4.85
2022-12-17T21:44:39.526Z,4.95
2022-12-17T21:47:08.842Z,6.42
2022-12-17T21:49:37.258Z,5.90
2022-12-17T21:52:07.725Z,6.45
2022-12-17T21:54:38.026Z,7.33
2022-12-17T21:57:07.389Z,7.72
2022-12-17T21:59:35.963Z,8.55
2022-12-17T22:02:04.567Z,7.42
2022-12-17T22:04:34.527Z,8.08
2022-12-17T22:07:05.442Z,8.05
2022-12-17T22:09:44.286Z,7.65
2022-12-17T22:12:23.633Z,8.28
2022-12-17T22:14:53.319Z,9.48
2022-12-17T22:17:24.213Z,8.80
2022-12-17T22:19:54.874Z,9.73
2022-12-17T22:22:23.656Z,8.20
2022-12-17T22:24:52.415Z,10.03
2022-12-17T22:27:21.256Z,10.40
2022-12-17T22:30:09.667Z,11.97
2022-12-17T22:32:57.412Z,9.80
2022-12-17T22:35:52.767Z,10.78
2022-12-17T22:41:32.982Z,10.93
2022-12-17T22:44:33.364Z,12.28
2022-12-17T22:44:49.752Z,13.05
2022-12-17T22:45:52.523Z,11.97
2022-12-17T22:48:23.118Z,11.22
2022-12-17T22:51:05.917Z,15.32
2022-12-17T22:53:25.754Z,14.20
2022-12-17T22:55:54.578Z,14.55
2022-12-17T22:58:24.652Z,14.60
2022-12-17T23:00:54.757Z,15.48
2022-12-17T23:03:24.529Z,15.50
2022-12-17T23:05:57.649Z,14.83
2022-12-17T23:08:27.062Z,15.13
2022-12-17T23:10:56.230Z,14.93
2022-12-17T23:13:25.632Z,13.08
2022-12-17T23:15:54.587Z,15.08
2022-12-17T23:18:23.334Z,13.38
2022-12-17T23:20:53.394Z,12.90
2022-12-17T23:23:22.019Z,12.80
2022-12-17T23:25:50.560Z,13.85
2022-12-17T23:28:19.734Z,14.33
2022-12-17T23:30:48.675Z,12.47
2022-12-17T23:33:17.835Z,13.05
2022-12-17T23:35:46.446Z,13.00
2022-12-17T23:38:15.992Z,15.00
2022-12-17T23:40:44.794Z,15.25
2022-12-17T23:43:17.501Z,15.20
2022-12-17T23:45:45.327Z,14.78
2022-12-17T23:48:14.242Z,15.60
2022-12-17T23:50:42.883Z,15.43
2022-12-17T23:53:13.565Z,16.05
2022-12-17T23:55:42.456Z,15.85
2022-12-17T23:58:11.140Z,18.30
